sensor_id;sensor_type;location;lat;lon;timestamp;pressure;altitude;pressure_sealevel;temperature;humidity
16100;BME280;8154;50.830;12.082;2022-08-11T00:02:37;100160.31;;;26.66;31.45
16100;BME280;8154;50.830;12.082;2022-08-11T00:05:21;100158.00;;;26.63;31.34
16100;BME280;8154;50.830;12.082;2022-08-11T00:08:06;100163.75;;;26.60;31.37
16100;BME280;8154;50.830;12.082;2022-08-11T00:10:54;100159.25;;;26.60;31.25
16100;BME280;8154;50.830;12.082;2022-08-11T00:13:42;100152.84;;;26.61;31.03
16100;BME280;8154;50.830;12.082;2022-08-11T00:16:30;100157.03;;;26.64;31.15
16100;BME280;8154;50.830;12.082;2022-08-11T00:19:21;100158.00;;;26.63;30.99
16100;BME280;8154;50.830;12.082;2022-08-11T00:22:06;100167.47;;;26.59;31.18
16100;BME280;8154;50.830;12.082;2022-08-11T00:24:52;100167.56;;;26.65;31.01
16100;BME280;8154;50.830;12.082;2022-08-11T00:27:38;100160.13;;;26.67;30.89
16100;BME280;8154;50.830;12.082;2022-08-11T00:30:23;100161.78;;;26.68;30.88
16100;BME280;8154;50.830;12.082;2022-08-11T00:33:08;100162.00;;;26.67;30.82
16100;BME280;8154;50.830;12.082;2022-08-11T00:35:57;100164.59;;;26.60;31.00
16100;BME280;8154;50.830;12.082;2022-08-11T00:38:44;100168.28;;;26.59;31.00
16100;BME280;8154;50.830;12.082;2022-08-11T00:41:39;100162.50;;;26.56;31.15
16100;BME280;8154;50.830;12.082;2022-08-11T00:47:54;100169.69;;;26.49;31.01
16100;BME280;8154;50.830;12.082;2022-08-11T00:53:45;100164.31;;;26.49;31.16
16100;BME280;8154;50.830;12.082;2022-08-11T01:00:10;100171.16;;;26.51;31.17
16100;BME280;8154;50.830;12.082;2022-08-11T01:03:27;100173.19;;;26.49;31.24
16100;BME280;8154;50.830;12.082;2022-08-11T01:09:39;100170.72;;;26.48;31.20
16100;BME280;8154;50.830;12.082;2022-08-11T01:16:34;100167.78;;;26.43;31.40
16100;BME280;8154;50.830;12.082;2022-08-11T01:25:34;100176.19;;;26.33;31.32
16100;BME280;8154;50.830;12.082;2022-08-11T01:47:04;100166.63;;;25.97;31.58
16100;BME280;8154;50.830;12.082;2022-08-11T01:50:06;100165.44;;;25.99;31.51
16100;BME280;8154;50.830;12.082;2022-08-11T01:53:15;100164.44;;;26.00;31.76
16100;BME280;8154;50.830;12.082;2022-08-11T01:56:38;100172.88;;;26.04;31.39
16100;BME280;8154;50.830;12.082;2022-08-11T02:02:44;100170.59;;;26.01;31.43
16100;BME280;8154;50.830;12.082;2022-08-11T02:08:44;100170.66;;;26.07;31.43
16100;BME280;8154;50.830;12.082;2022-08-11T02:11:31;100167.19;;;26.13;31.21
16100;BME280;8154;50.830;12.082;2022-08-11T02:17:33;100171.75;;;26.13;31.56
16100;BME280;8154;50.830;12.082;2022-08-11T02:20:24;100159.34;;;26.12;31.29
16100;BME280;8154;50.830;12.082;2022-08-11T02:35:57;100161.09;;;25.98;31.27
16100;BME280;8154;50.830;12.082;2022-08-11T02:38:58;100161.91;;;25.99;31.47
16100;BME280;8154;50.830;12.082;2022-08-11T02:41:51;100152.22;;;25.98;31.46
16100;BME280;8154;50.830;12.082;2022-08-11T02:45:04;100158.41;;;25.98;31.33
16100;BME280;8154;50.830;12.082;2022-08-11T02:51:19;100155.09;;;25.96;31.27
16100;BME280;8154;50.830;12.082;2022-08-11T02:54:16;100154.66;;;25.93;31.53
16100;BME280;8154;50.830;12.082;2022-08-11T03:00:20;100154.66;;;25.93;31.34
16100;BME280;8154;50.830;12.082;2022-08-11T03:03:21;100155.88;;;25.90;31.24
16100;BME280;8154;50.830;12.082;2022-08-11T03:06:38;100157.53;;;25.91;31.10
16100;BME280;8154;50.830;12.082;2022-08-11T03:09:39;100161.66;;;25.94;31.10
16100;BME280;8154;50.830;12.082;2022-08-11T03:12:35;100162.31;;;25.96;31.00
16100;BME280;8154;50.830;12.082;2022-08-11T03:15:48;100173.03;;;25.96;30.94
16100;BME280;8154;50.830;12.082;2022-08-11T03:22:28;100173.09;;;26.02;30.93
16100;BME280;8154;50.830;12.082;2022-08-11T03:25:29;100182.34;;;26.00;31.01
16100;BME280;8154;50.830;12.082;2022-08-11T03:28:27;100184.75;;;25.95;30.98
16100;BME280;8154;50.830;12.082;2022-08-11T03:34:08;100177.75;;;25.94;31.08
16100;BME280;8154;50.830;12.082;2022-08-11T03:43:41;100186.81;;;25.93;30.85
16100;BME280;8154;50.830;12.082;2022-08-11T04:05:47;100180.50;;;25.79;30.76
16100;BME280;8154;50.830;12.082;2022-08-11T04:11:50;100187.91;;;25.77;31.02
16100;BME280;8154;50.830;12.082;2022-08-11T04:14:54;100185.81;;;25.72;31.03
16100;BME280;8154;50.830;12.082;2022-08-11T04:24:11;100183.78;;;25.53;31.43
16100;BME280;8154;50.830;12.082;2022-08-11T04:30:16;100179.19;;;25.47;31.46
16100;BME280;8154;50.830;12.082;2022-08-11T04:33:11;100178.72;;;25.44;31.55
16100;BME280;8154;50.830;12.082;2022-08-11T04:39:39;100167.25;;;25.50;31.53
16100;BME280;8154;50.830;12.082;2022-08-11T05:05:52;100179.34;;;25.67;31.25
16100;BME280;8154;50.830;12.082;2022-08-11T05:09:03;100179.34;;;25.67;31.37
16100;BME280;8154;50.830;12.082;2022-08-11T05:12:24;100177.13;;;25.70;31.51
16100;BME280;8154;50.830;12.082;2022-08-11T05:15:17;100182.50;;;25.70;31.35
16100;BME280;8154;50.830;12.082;2022-08-11T05:18:23;100181.91;;;25.75;31.03
16100;BME280;8154;50.830;12.082;2022-08-11T05:21:27;100180.69;;;25.77;31.19
16100;BME280;8154;50.830;12.082;2022-08-11T05:24:45;100176.81;;;25.80;31.33
16100;BME280;8154;50.830;12.082;2022-08-11T05:31:10;100192.94;;;25.87;31.23
16100;BME280;8154;50.830;12.082;2022-08-11T05:34:23;100180.56;;;25.85;31.33
16100;BME280;8154;50.830;12.082;2022-08-11T05:37:36;100193.31;;;25.83;31.72
16100;BME280;8154;50.830;12.082;2022-08-11T05:40:22;100192.03;;;25.79;31.66
16100;BME280;8154;50.830;12.082;2022-08-11T05:43:26;100183.63;;;25.82;31.47
16100;BME280;8154;50.830;12.082;2022-08-11T05:46:38;100184.25;;;25.84;31.70
16100;BME280;8154;50.830;12.082;2022-08-11T05:49:47;100188.78;;;25.84;31.65
16100;BME280;8154;50.830;12.082;2022-08-11T05:52:52;100183.22;;;25.85;31.72
16100;BME280;8154;50.830;12.082;2022-08-11T05:55:56;100190.50;;;25.92;31.43
16100;BME280;8154;50.830;12.082;2022-08-11T05:59:01;100184.56;;;25.96;31.59
16100;BME280;8154;50.830;12.082;2022-08-11T06:01:46;100188.06;;;25.97;31.46
16100;BME280;8154;50.830;12.082;2022-08-11T06:04:31;100191.03;;;26.02;31.59
16100;BME280;8154;50.830;12.082;2022-08-11T06:07:16;100196.19;;;26.03;31.55
16100;BME280;8154;50.830;12.082;2022-08-11T06:10:01;100204.47;;;26.08;31.41
16100;BME280;8154;50.830;12.082;2022-08-11T06:12:51;100195.59;;;26.08;31.47
16100;BME280;8154;50.830;12.082;2022-08-11T06:15:45;100201.22;;;26.13;31.35
16100;BME280;8154;50.830;12.082;2022-08-11T06:18:30;100198.16;;;26.16;31.46
16100;BME280;8154;50.830;12.082;2022-08-11T06:21:15;100201.25;;;26.19;31.31
16100;BME280;8154;50.830;12.082;2022-08-11T06:24:12;100201.09;;;26.27;31.14
16100;BME280;8154;50.830;12.082;2022-08-11T06:26:58;100203.44;;;26.37;31.26
16100;BME280;8154;50.830;12.082;2022-08-11T06:29:50;100199.56;;;26.46;31.28
16100;BME280;8154;50.830;12.082;2022-08-11T06:32:35;100203.53;;;26.56;31.02
16100;BME280;8154;50.830;12.082;2022-08-11T06:45:05;100199.94;;;26.70;30.77
16100;BME280;8154;50.830;12.082;2022-08-11T06:47:52;100200.78;;;26.71;30.85
16100;BME280;8154;50.830;12.082;2022-08-11T06:50:37;100202.41;;;26.72;30.79
16100;BME280;8154;50.830;12.082;2022-08-11T06:53:52;100196.25;;;26.71;30.78
16100;BME280;8154;50.830;12.082;2022-08-11T06:56:40;100200.19;;;26.75;30.92
16100;BME280;8154;50.830;12.082;2022-08-11T06:59:44;100194.81;;;26.75;30.85
16100;BME280;8154;50.830;12.082;2022-08-11T07:02:56;100202.50;;;26.85;30.92
16100;BME280;8154;50.830;12.082;2022-08-11T07:05:53;100194.06;;;26.88;30.77
16100;BME280;8154;50.830;12.082;2022-08-11T07:15:32;100196.19;;;27.05;30.42
16100;BME280;8154;50.830;12.082;2022-08-11T07:18:33;100192.28;;;27.08;30.40
16100;BME280;8154;50.830;12.082;2022-08-11T07:21:40;100197.88;;;27.13;30.42
16100;BME280;8154;50.830;12.082;2022-08-11T07:25:10;100188.16;;;27.18;30.39
16100;BME280;8154;50.830;12.082;2022-08-11T07:28:27;100192.13;;;27.22;30.47
16100;BME280;8154;50.830;12.082;2022-08-11T07:31:45;100188.84;;;27.27;30.38
16100;BME280;8154;50.830;12.082;2022-08-11T07:34:39;100189.06;;;27.32;30.43
16100;BME280;8154;50.830;12.082;2022-08-11T07:37:28;100187.41;;;27.31;30.13
16100;BME280;8154;50.830;12.082;2022-08-11T07:40:20;100189.25;;;27.30;30.44
16100;BME280;8154;50.830;12.082;2022-08-11T07:43:05;100186.38;;;27.32;30.19
16100;BME280;8154;50.830;12.082;2022-08-11T07:45:50;100177.50;;;27.31;30.26
16100;BME280;8154;50.830;12.082;2022-08-11T07:48:53;100171.94;;;27.33;30.17
16100;BME280;8154;50.830;12.082;2022-08-11T07:51:57;100178.53;;;27.37;30.17
16100;BME280;8154;50.830;12.082;2022-08-11T07:55:05;100178.13;;;27.40;30.19
16100;BME280;8154;50.830;12.082;2022-08-11T07:57:50;100180.41;;;27.43;30.34
16100;BME280;8154;50.830;12.082;2022-08-11T08:00:56;100173.41;;;27.42;30.10
16100;BME280;8154;50.830;12.082;2022-08-11T08:03:59;100177.09;;;27.48;29.88
16100;BME280;8154;50.830;12.082;2022-08-11T08:07:04;100173.41;;;27.49;30.18
16100;BME280;8154;50.830;12.082;2022-08-11T08:10:09;100175.06;;;27.50;29.94
16100;BME280;8154;50.830;12.082;2022-08-11T08:13:13;100161.84;;;27.55;29.66
16100;BME280;8154;50.830;12.082;2022-08-11T08:16:18;100168.66;;;27.57;29.75
16100;BME280;8154;50.830;12.082;2022-08-11T08:19:22;100161.22;;;27.59;29.52
16100;BME280;8154;50.830;12.082;2022-08-11T08:22:06;100169.09;;;27.61;29.71
16100;BME280;8154;50.830;12.082;2022-08-11T08:24:51;100164.72;;;27.66;29.67
16100;BME280;8154;50.830;12.082;2022-08-11T08:27:37;100160.19;;;27.67;29.78
16100;BME280;8154;50.830;12.082;2022-08-11T08:30:23;100162.88;;;27.67;29.84
16100;BME280;8154;50.830;12.082;2022-08-11T08:33:29;100158.78;;;27.71;29.72
16100;BME280;8154;50.830;12.082;2022-08-11T08:36:14;100158.78;;;27.71;29.78
16100;BME280;8154;50.830;12.082;2022-08-11T08:39:00;100157.31;;;27.75;29.67
16100;BME280;8154;50.830;12.082;2022-08-11T08:41:44;100156.28;;;27.76;29.57
16100;BME280;8154;50.830;12.082;2022-08-11T08:44:33;100139.94;;;27.77;29.59
16100;BME280;8154;50.830;12.082;2022-08-11T08:47:19;100145.94;;;27.79;29.71
16100;BME280;8154;50.830;12.082;2022-08-11T08:50:12;100142.00;;;27.82;29.47
16100;BME280;8154;50.830;12.082;2022-08-11T08:53:03;100146.16;;;27.84;29.22
16100;BME280;8154;50.830;12.082;2022-08-11T08:55:49;100140.16;;;27.82;29.34
16100;BME280;8154;50.830;12.082;2022-08-11T08:58:36;100129.84;;;27.86;29.57
16100;BME280;8154;50.830;12.082;2022-08-11T09:01:22;100126.75;;;27.89;29.49
16100;BME280;8154;50.830;12.082;2022-08-11T09:04:08;100134.16;;;27.87;29.06
16100;BME280;8154;50.830;12.082;2022-08-11T09:06:59;100130.63;;;27.86;28.51
16100;BME280;8154;50.830;12.082;2022-08-11T09:09:48;100124.66;;;27.84;28.10
16100;BME280;8154;50.830;12.082;2022-08-11T09:12:34;100120.72;;;27.80;28.09
16100;BME280;8154;50.830;12.082;2022-08-11T09:15:20;100116.81;;;27.83;27.92
16100;BME280;8154;50.830;12.082;2022-08-11T09:18:06;100118.25;;;27.85;27.91
16100;BME280;8154;50.830;12.082;2022-08-11T09:20:53;100110.41;;;27.84;27.91
16100;BME280;8154;50.830;12.082;2022-08-11T09:23:38;100108.34;;;27.86;27.87
16100;BME280;8154;50.830;12.082;2022-08-11T09:26:42;100110.84;;;27.87;27.70
16100;BME280;8154;50.830;12.082;2022-08-11T09:29:43;100118.66;;;27.82;27.75
16100;BME280;8154;50.830;12.082;2022-08-11T09:32:28;100110.19;;;27.85;27.70
16100;BME280;8154;50.830;12.082;2022-08-11T09:35:14;100105.84;;;27.84;27.44
16100;BME280;8154;50.830;12.082;2022-08-11T09:38:03;100112.03;;;27.85;27.55
16100;BME280;8154;50.830;12.082;2022-08-11T09:41:11;100119.28;;;27.84;27.37
16100;BME280;8154;50.830;12.082;2022-08-11T09:43:56;100102.34;;;27.84;27.27
16100;BME280;8154;50.830;12.082;2022-08-11T09:47:00;100100.50;;;27.84;27.43
16100;BME280;8154;50.830;12.082;2022-08-11T09:49:47;100102.13;;;27.85;27.25
16100;BME280;8154;50.830;12.082;2022-08-11T09:52:37;100097.19;;;27.82;27.37
16100;BME280;8154;50.830;12.082;2022-08-11T09:55:21;100093.44;;;27.83;27.12
16100;BME280;8154;50.830;12.082;2022-08-11T09:58:06;100094.50;;;27.82;27.20
16100;BME280;8154;50.830;12.082;2022-08-11T10:00:58;100098.44;;;27.80;27.02
16100;BME280;8154;50.830;12.082;2022-08-11T10:03:45;100088.28;;;27.82;26.88
16100;BME280;8154;50.830;12.082;2022-08-11T10:06:33;100085.22;;;27.78;27.14
16100;BME280;8154;50.830;12.082;2022-08-11T10:09:51;100079.00;;;27.84;27.02
16100;BME280;8154;50.830;12.082;2022-08-11T10:12:40;100086.22;;;27.84;26.91
16100;BME280;8154;50.830;12.082;2022-08-11T10:15:25;100078.38;;;27.82;27.06
16100;BME280;8154;50.830;12.082;2022-08-11T10:18:22;100081.88;;;27.83;26.99
16100;BME280;8154;50.830;12.082;2022-08-11T10:21:35;100084.38;;;27.84;27.06
16100;BME280;8154;50.830;12.082;2022-08-11T10:24:20;100079.63;;;27.80;27.07
16100;BME280;8154;50.830;12.082;2022-08-11T10:27:24;100080.44;;;27.80;26.99
16100;BME280;8154;50.830;12.082;2022-08-11T10:30:10;100071.34;;;27.81;27.12
16100;BME280;8154;50.830;12.082;2022-08-11T10:33:16;100062.88;;;27.78;26.92
16100;BME280;8154;50.830;12.082;2022-08-11T10:36:20;100058.53;;;27.83;26.94
16100;BME280;8154;50.830;12.082;2022-08-11T10:39:05;100054.19;;;27.82;27.01
16100;BME280;8154;50.830;12.082;2022-08-11T10:41:50;100067.00;;;27.80;27.00
16100;BME280;8154;50.830;12.082;2022-08-11T10:44:57;100057.09;;;27.81;27.17
16100;BME280;8154;50.830;12.082;2022-08-11T10:47:44;100046.34;;;27.74;27.07
16100;BME280;8154;50.830;12.082;2022-08-11T10:50:29;100044.28;;;27.70;27.17
16100;BME280;8154;50.830;12.082;2022-08-11T10:53:33;100044.72;;;27.73;27.16
16100;BME280;8154;50.830;12.082;2022-08-11T10:56:37;100048.03;;;27.75;27.04
16100;BME280;8154;50.830;12.082;2022-08-11T10:59:41;100037.06;;;27.70;27.11
16100;BME280;8154;50.830;12.082;2022-08-11T11:02:27;100043.06;;;27.72;26.92
16100;BME280;8154;50.830;12.082;2022-08-11T11:05:19;100037.47;;;27.74;26.81
16100;BME280;8154;50.830;12.082;2022-08-11T11:08:15;100038.69;;;27.78;26.68
16100;BME280;8154;50.830;12.082;2022-08-11T11:11:22;100034.38;;;27.70;26.60
16100;BME280;8154;50.830;12.082;2022-08-11T11:14:31;100025.91;;;27.73;26.55
16100;BME280;8154;50.830;12.082;2022-08-11T11:17:39;100025.28;;;27.71;26.52
16100;BME280;8154;50.830;12.082;2022-08-11T11:20:46;100027.97;;;27.71;26.48
16100;BME280;8154;50.830;12.082;2022-08-11T11:23:53;100035.81;;;27.73;26.32
16100;BME280;8154;50.830;12.082;2022-08-11T11:29:50;100012.47;;;27.67;26.91
16100;BME280;8154;50.830;12.082;2022-08-11T11:38:44;100010.22;;;27.77;26.08
16100;BME280;8154;50.830;12.082;2022-08-11T11:41:28;100022.38;;;27.73;26.14
16100;BME280;8154;50.830;12.082;2022-08-11T11:44:14;100014.53;;;27.71;25.80
16100;BME280;8154;50.830;12.082;2022-08-11T11:46:59;100011.22;;;27.69;25.79
16100;BME280;8154;50.830;12.082;2022-08-11T11:49:44;100002.16;;;27.70;25.68
16100;BME280;8154;50.830;12.082;2022-08-11T11:52:29;99998.22;;;27.66;25.71
16100;BME280;8154;50.830;12.082;2022-08-11T11:55:14;100007.53;;;27.70;25.90
16100;BME280;8154;50.830;12.082;2022-08-11T11:58:00;100004.84;;;27.70;25.72
16100;BME280;8154;50.830;12.082;2022-08-11T12:01:04;100003.00;;;27.71;25.71
16100;BME280;8154;50.830;12.082;2022-08-11T12:04:03;100011.22;;;27.69;25.72
16100;BME280;8154;50.830;12.082;2022-08-11T12:06:52;100005.06;;;27.69;25.60
16100;BME280;8154;50.830;12.082;2022-08-11T12:09:57;99998.25;;;27.60;25.79
16100;BME280;8154;50.830;12.082;2022-08-11T12:12:42;99993.28;;;27.63;25.62
16100;BME280;8154;50.830;12.082;2022-08-11T12:15:49;99996.59;;;27.59;25.57
16100;BME280;8154;50.830;12.082;2022-08-11T12:18:36;99987.09;;;27.63;25.61
16100;BME280;8154;50.830;12.082;2022-08-11T12:21:22;99987.69;;;27.65;25.62
16100;BME280;8154;50.830;12.082;2022-08-11T12:24:09;99986.25;;;27.62;25.66
16100;BME280;8154;50.830;12.082;2022-08-11T12:27:12;99978.00;;;27.64;25.64
16100;BME280;8154;50.830;12.082;2022-08-11T12:30:05;99983.56;;;27.62;25.82
16100;BME280;8154;50.830;12.082;2022-08-11T12:32:51;99978.41;;;27.61;25.82
16100;BME280;8154;50.830;12.082;2022-08-11T12:35:36;99974.09;;;27.53;25.97
16100;BME280;8154;50.830;12.082;2022-08-11T12:38:21;99970.38;;;27.54;26.09
16100;BME280;8154;50.830;12.082;2022-08-11T12:41:07;99970.16;;;27.56;26.16
16100;BME280;8154;50.830;12.082;2022-08-11T12:44:10;99965.19;;;27.59;25.80
16100;BME280;8154;50.830;12.082;2022-08-11T12:47:17;99971.81;;;27.57;25.96
16100;BME280;8154;50.830;12.082;2022-08-11T12:50:02;99976.34;;;27.63;25.77
16100;BME280;8154;50.830;12.082;2022-08-11T12:53:06;99965.59;;;27.63;25.75
16100;BME280;8154;50.830;12.082;2022-08-11T12:55:56;99963.94;;;27.62;25.87
16100;BME280;8154;50.830;12.082;2022-08-11T12:59:01;99961.66;;;27.65;25.60
16100;BME280;8154;50.830;12.082;2022-08-11T13:02:05;99947.63;;;27.63;25.44
16100;BME280;8154;50.830;12.082;2022-08-11T13:05:12;99942.88;;;27.65;25.39
16100;BME280;8154;50.830;12.082;2022-08-11T13:07:59;99946.81;;;27.63;25.70
16100;BME280;8154;50.830;12.082;2022-08-11T13:10:44;99937.72;;;27.64;25.65
16100;BME280;8154;50.830;12.082;2022-08-11T13:13:50;99949.72;;;27.61;25.64
16100;BME280;8154;50.830;12.082;2022-08-11T13:16:36;99935.88;;;27.58;25.62
16100;BME280;8154;50.830;12.082;2022-08-11T13:19:42;99944.34;;;27.61;25.67
16100;BME280;8154;50.830;12.082;2022-08-11T13:22:28;99936.28;;;27.61;25.65
16100;BME280;8154;50.830;12.082;2022-08-11T13:25:14;99935.03;;;27.64;25.51
16100;BME280;8154;50.830;12.082;2022-08-11T13:28:00;99936.88;;;27.63;25.61
16100;BME280;8154;50.830;12.082;2022-08-11T13:30:46;99933.16;;;27.64;25.55
16100;BME280;8154;50.830;12.082;2022-08-11T13:33:50;99915.81;;;27.60;25.72
16100;BME280;8154;50.830;12.082;2022-08-11T13:36:35;99918.50;;;27.60;25.77
16100;BME280;8154;50.830;12.082;2022-08-11T13:39:25;99925.97;;;27.58;25.88
16100;BME280;8154;50.830;12.082;2022-08-11T13:42:10;99922.00;;;27.61;25.95
16100;BME280;8154;50.830;12.082;2022-08-11T13:44:55;99907.53;;;27.62;25.76
16100;BME280;8154;50.830;12.082;2022-08-11T13:47:42;99917.47;;;27.61;25.81
16100;BME280;8154;50.830;12.082;2022-08-11T13:50:27;99925.13;;;27.64;25.61
16100;BME280;8154;50.830;12.082;2022-08-11T13:53:32;99915.38;;;27.63;25.62
16100;BME280;8154;50.830;12.082;2022-08-11T13:56:20;99906.75;;;27.61;25.58
16100;BME280;8154;50.830;12.082;2022-08-11T13:59:09;99901.53;;;27.66;25.58
16100;BME280;8154;50.830;12.082;2022-08-11T14:01:57;99898.03;;;27.66;25.60
16100;BME280;8154;50.830;12.082;2022-08-11T14:07:40;99885.84;;;27.63;25.62
16100;BME280;8154;50.830;12.082;2022-08-11T14:10:30;99888.31;;;27.65;25.69
16100;BME280;8154;50.830;12.082;2022-08-11T14:13:16;99884.00;;;27.64;25.74
16100;BME280;8154;50.830;12.082;2022-08-11T14:16:33;99890.19;;;27.64;25.74
16100;BME280;8154;50.830;12.082;2022-08-11T14:19:23;99870.34;;;27.65;25.66
16100;BME280;8154;50.830;12.082;2022-08-11T14:22:08;99875.50;;;27.67;25.66
16100;BME280;8154;50.830;12.082;2022-08-11T14:24:56;99867.88;;;27.64;25.76
16100;BME280;8154;50.830;12.082;2022-08-11T14:27:43;99868.31;;;27.61;26.03
16100;BME280;8154;50.830;12.082;2022-08-11T14:30:28;99874.25;;;27.69;25.73
16100;BME280;8154;50.830;12.082;2022-08-11T14:33:31;99865.19;;;27.70;25.64
16100;BME280;8154;50.830;12.082;2022-08-11T14:36:17;99870.97;;;27.67;25.57
16100;BME280;8154;50.830;12.082;2022-08-11T14:39:07;99865.41;;;27.62;25.59
16100;BME280;8154;50.830;12.082;2022-08-11T14:41:58;99859.63;;;27.65;25.61
16100;BME280;8154;50.830;12.082;2022-08-11T14:45:10;99860.44;;;27.66;25.54
16100;BME280;8154;50.830;12.082;2022-08-11T14:48:15;99844.34;;;27.59;25.63
16100;BME280;8154;50.830;12.082;2022-08-11T14:51:00;99840.84;;;27.59;25.45
16100;BME280;8154;50.830;12.082;2022-08-11T14:53:44;99831.16;;;27.58;25.61
16100;BME280;8154;50.830;12.082;2022-08-11T14:56:29;99839.63;;;27.55;25.66
16100;BME280;8154;50.830;12.082;2022-08-11T14:59:20;99840.41;;;27.62;25.78
16100;BME280;8154;50.830;12.082;2022-08-11T15:02:05;99839.75;;;27.66;25.73
16100;BME280;8154;50.830;12.082;2022-08-11T15:05:08;99850.50;;;27.66;25.63
16100;BME280;8154;50.830;12.082;2022-08-11T15:07:54;99854.88;;;27.67;25.73
16100;BME280;8154;50.830;12.082;2022-08-11T15:10:40;99843.69;;;27.70;25.70
16100;BME280;8154;50.830;12.082;2022-08-11T15:13:24;99829.84;;;27.67;25.53
16100;BME280;8154;50.830;12.082;2022-08-11T15:16:08;99835.22;;;27.67;25.50
16100;BME280;8154;50.830;12.082;2022-08-11T15:19:12;99825.53;;;27.66;25.50
16100;BME280;8154;50.830;12.082;2022-08-11T15:21:57;99826.19;;;27.61;25.53
16100;BME280;8154;50.830;12.082;2022-08-11T15:25:01;99823.28;;;27.63;25.42
16100;BME280;8154;50.830;12.082;2022-08-11T15:27:47;99823.28;;;27.63;25.54
16100;BME280;8154;50.830;12.082;2022-08-11T15:30:54;99826.19;;;27.61;25.70
16100;BME280;8154;50.830;12.082;2022-08-11T15:34:02;99828.22;;;27.66;25.65
16100;BME280;8154;50.830;12.082;2022-08-11T15:37:08;99814.56;;;27.67;25.63
16100;BME280;8154;50.830;12.082;2022-08-11T15:40:21;99825.31;;;27.67;25.63
16100;BME280;8154;50.830;12.082;2022-08-11T15:43:51;99820.16;;;27.66;25.57
16100;BME280;8154;50.830;12.082;2022-08-11T15:46:56;99822.00;;;27.72;25.51
16100;BME280;8154;50.830;12.082;2022-08-11T15:50:01;99814.78;;;27.72;25.32
16100;BME280;8154;50.830;12.082;2022-08-11T15:56:10;99823.66;;;27.66;25.54
16100;BME280;8154;50.830;12.082;2022-08-11T15:58:57;99817.06;;;27.62;25.59
16100;BME280;8154;50.830;12.082;2022-08-11T16:02:04;99812.09;;;27.66;25.66
16100;BME280;8154;50.830;12.082;2022-08-11T16:05:12;99808.19;;;27.62;25.55
16100;BME280;8154;50.830;12.082;2022-08-11T16:07:57;99809.03;;;27.62;25.45
16100;BME280;8154;50.830;12.082;2022-08-11T16:10:43;99807.16;;;27.63;25.46
16100;BME280;8154;50.830;12.082;2022-08-11T16:13:28;99808.19;;;27.62;25.35
16100;BME280;8154;50.830;12.082;2022-08-11T16:16:14;99802.59;;;27.63;25.39
16100;BME280;8154;50.830;12.082;2022-08-11T16:19:00;99806.53;;;27.61;25.41
16100;BME280;8154;50.830;12.082;2022-08-11T16:21:50;99807.31;;;27.68;25.34
16100;BME280;8154;50.830;12.082;2022-08-11T16:24:39;99807.09;;;27.69;25.33
16100;BME280;8154;50.830;12.082;2022-08-11T16:27:28;99806.94;;;27.71;25.12
16100;BME280;8154;50.830;12.082;2022-08-11T16:30:17;99801.16;;;27.67;25.17
16100;BME280;8154;50.830;12.082;2022-08-11T16:33:02;99802.78;;;27.68;24.97
16100;BME280;8154;50.830;12.082;2022-08-11T16:35:48;99797.19;;;27.70;25.09
16100;BME280;8154;50.830;12.082;2022-08-11T16:38:54;99801.38;;;27.66;25.06
16100;BME280;8154;50.830;12.082;2022-08-11T16:41:39;99800.97;;;27.62;24.93
16100;BME280;8154;50.830;12.082;2022-08-11T16:44:45;99799.31;;;27.61;25.18
16100;BME280;8154;50.830;12.082;2022-08-11T16:47:48;99804.06;;;27.59;25.10
16100;BME280;8154;50.830;12.082;2022-08-11T16:50:34;99794.31;;;27.65;24.89
16100;BME280;8154;50.830;12.082;2022-08-11T16:53:19;99795.59;;;27.62;24.88
16100;BME280;8154;50.830;12.082;2022-08-11T16:56:05;99798.06;;;27.64;24.89
16100;BME280;8154;50.830;12.082;2022-08-11T16:58:53;99799.69;;;27.65;24.85
16100;BME280;8154;50.830;12.082;2022-08-11T17:02:12;99793.09;;;27.67;24.76
16100;BME280;8154;50.830;12.082;2022-08-11T17:05:22;99799.31;;;27.61;24.80
16100;BME280;8154;50.830;12.082;2022-08-11T17:08:32;99797.84;;;27.65;24.82
16100;BME280;8154;50.830;12.082;2022-08-11T17:11:44;99794.16;;;27.60;24.90
16100;BME280;8154;50.830;12.082;2022-08-11T17:14:51;99805.72;;;27.60;24.86
16100;BME280;8154;50.830;12.082;2022-08-11T17:17:38;99799.09;;;27.63;24.83
16100;BME280;8154;50.830;12.082;2022-08-11T17:20:23;99801.78;;;27.63;24.76
16100;BME280;8154;50.830;12.082;2022-08-11T17:23:07;99803.00;;;27.67;24.63
16100;BME280;8154;50.830;12.082;2022-08-11T17:26:11;99813.75;;;27.67;24.65
16100;BME280;8154;50.830;12.082;2022-08-11T17:28:58;99801.16;;;27.67;24.48
16100;BME280;8154;50.830;12.082;2022-08-11T17:31:43;99796.59;;;27.68;24.36
16100;BME280;8154;50.830;12.082;2022-08-11T17:34:50;99795.16;;;27.65;24.36
16100;BME280;8154;50.830;12.082;2022-08-11T17:37:57;99788.97;;;27.65;24.51
16100;BME280;8154;50.830;12.082;2022-08-11T17:40:56;99779.88;;;27.66;24.49
16100;BME280;8154;50.830;12.082;2022-08-11T17:44:00;99791.22;;;27.68;24.43
16100;BME280;8154;50.830;12.082;2022-08-11T17:47:05;99792.47;;;27.65;24.50
16100;BME280;8154;50.830;12.082;2022-08-11T17:50:09;99781.13;;;27.63;24.53
16100;BME280;8154;50.830;12.082;2022-08-11T17:52:55;99780.31;;;27.63;24.60
16100;BME280;8154;50.830;12.082;2022-08-11T17:56:04;99784.84;;;27.62;24.62
16100;BME280;8154;50.830;12.082;2022-08-11T17:59:08;99790.00;;;27.64;24.51
16100;BME280;8154;50.830;12.082;2022-08-11T18:02:12;99796.78;;;27.66;24.50
16100;BME280;8154;50.830;12.082;2022-08-11T18:05:18;99793.09;;;27.67;24.61
16100;BME280;8154;50.830;12.082;2022-08-11T18:08:06;99799.06;;;27.69;24.59
16100;BME280;8154;50.830;12.082;2022-08-11T18:11:10;99800.50;;;27.72;24.67
16100;BME280;8154;50.830;12.082;2022-08-11T18:14:14;99799.06;;;27.69;24.61
16100;BME280;8154;50.830;12.082;2022-08-11T18:17:18;99807.09;;;27.69;24.75
16100;BME280;8154;50.830;12.082;2022-08-11T18:20:22;99804.25;;;27.71;24.88